Time;durP1;ratioP1;P1;durP2;ratioP2;P2;SDS_P1;SDS_P2;PMS_P1;PMS_P2;Temp;Humidity;BMP_temperature;BMP_pressure;BME280_temperature;BME280_humidity;BME280_pressure;Samples;Min_cycle;Max_cycle;Signal;HPM_P1;HPM_P2
2023/02/09 00:00:34;;;;;;;7.80;4.22;;;18.00;35.20;;;;;;5055435;28;20039;-64
2023/02/09 00:03:02;;;;;;;7.95;4.65;;;18.00;35.20;;;;;;5087785;28;20040;-64
2023/02/09 00:17:13;;;;;;;8.93;4.82;;;17.90;35.30;;;;;;5045701;28;20029;-63
2023/02/09 00:19:40;;;;;;;8.02;5.22;;;17.80;35.40;;;;;;5046563;28;20816;-63
2023/02/09 00:22:07;;;;;;;9.18;5.68;;;17.80;35.30;;;;;;5048337;28;20045;-65
2023/02/09 00:24:34;;;;;;;7.97;4.35;;;17.80;35.30;;;;;;5048414;28;20045;-63
2023/02/09 00:27:05;;;;;;;5.22;4.25;;;17.80;35.30;;;;;;5048046;28;20505;-64
2023/02/09 00:29:32;;;;;;;6.40;4.40;;;17.80;35.30;;;;;;5055648;28;20124;-64
2023/02/09 00:31:59;;;;;;;4.70;3.50;;;17.80;35.30;;;;;;5060864;28;20400;-63
2023/02/09 00:34:29;;;;;;;5.22;4.65;;;17.80;35.30;;;;;;5047721;28;20134;-62
2023/02/09 00:36:56;;;;;;;5.85;3.63;;;17.80;35.30;;;;;;5046451;28;20085;-63
2023/02/09 00:39:25;;;;;;;7.90;4.40;;;17.80;35.30;;;;;;5047918;28;20037;-63
2023/02/09 00:42:06;;;;;;;8.02;3.60;;;17.80;35.30;;;;;;5052674;28;20044;-63
2023/02/09 00:44:37;;;;;;;6.05;4.07;;;17.80;35.30;;;;;;5067711;28;20056;-64
2023/02/09 00:47:06;;;;;;;7.85;4.57;;;17.80;35.30;;;;;;5066389;28;20055;-63
2023/02/09 00:49:38;;;;;;;7.75;4.03;;;17.70;35.30;;;;;;5067219;28;20047;-63
2023/02/09 00:52:05;;;;;;;5.28;3.30;;;17.80;35.30;;;;;;5067700;28;20060;-63
2023/02/09 00:54:32;;;;;;;4.75;3.17;;;17.70;35.30;;;;;;5067755;28;20032;-63
2023/02/09 00:57:04;;;;;;;6.47;3.47;;;17.70;35.20;;;;;;5066154;28;20051;-63
2023/02/09 00:59:33;;;;;;;6.45;4.47;;;17.70;35.30;;;;;;5066020;28;20074;-63
2023/02/09 01:02:00;;;;;;;4.22;3.33;;;17.70;35.30;;;;;;5065524;28;20041;-64
2023/02/09 01:04:28;;;;;;;3.75;3.35;;;17.70;35.20;;;;;;5067700;28;20568;-64
2023/02/09 01:06:56;;;;;;;8.98;3.83;;;17.70;35.20;;;;;;5065951;28;20105;-64
2023/02/09 01:09:25;;;;;;;3.90;2.75;;;17.70;35.30;;;;;;5067386;28;20040;-64
2023/02/09 01:11:53;;;;;;;5.72;3.40;;;17.70;35.20;;;;;;5066289;28;20140;-65
2023/02/09 01:14:20;;;;;;;5.55;3.35;;;17.60;35.20;;;;;;5067268;28;20083;-64
2023/02/09 01:16:47;;;;;;;4.25;2.65;;;17.70;35.20;;;;;;5067031;28;20036;-64
2023/02/09 01:19:14;;;;;;;3.92;2.80;;;17.60;35.20;;;;;;5067217;28;20072;-63
2023/02/09 01:21:42;;;;;;;4.82;3.28;;;17.60;35.20;;;;;;5056886;28;20059;-65
2023/02/09 01:24:15;;;;;;;4.38;2.67;;;17.60;35.20;;;;;;5062858;28;20059;-62
2023/02/09 01:26:44;;;;;;;3.92;2.90;;;17.60;35.20;;;;;;5047013;28;20045;-62
2023/02/09 01:29:13;;;;;;;3.58;2.45;;;17.60;35.20;;;;;;5052205;28;20048;-63
2023/02/09 01:31:44;;;;;;;5.22;2.75;;;17.60;35.20;;;;;;5066526;28;20044;-64
2023/02/09 01:34:14;;;;;;;5.28;2.90;;;17.60;35.20;;;;;;5065287;28;20052;-64
2023/02/09 01:36:41;;;;;;;5.22;2.75;;;17.60;35.20;;;;;;5066477;28;20048;-62
2023/02/09 01:39:11;;;;;;;3.60;2.58;;;17.60;35.20;;;;;;5065517;28;20040;-62
2023/02/09 01:41:41;;;;;;;6.00;3.40;;;17.60;35.20;;;;;;5066532;28;20408;-62
2023/02/09 01:44:51;;;;;;;3.72;2.20;;;17.50;35.20;;;;;;5066710;28;20041;-65
2023/02/09 01:47:19;;;;;;;2.72;2.20;;;17.60;35.20;;;;;;5066413;28;20068;-62
2023/02/09 01:49:50;;;;;;;3.50;2.58;;;17.50;35.20;;;;;;5066919;28;20064;-63
2023/02/09 01:52:20;;;;;;;2.92;2.65;;;17.50;35.20;;;;;;5066896;28;20044;-65
2023/02/09 01:54:50;;;;;;;4.78;3.13;;;17.50;35.20;;;;;;5066996;28;20131;-64
2023/02/09 01:57:24;;;;;;;4.15;2.40;;;17.50;35.20;;;;;;5066321;28;20102;-64
2023/02/09 01:59:56;;;;;;;3.45;2.40;;;17.50;35.20;;;;;;5080156;28;20040;-63
2023/02/09 02:02:25;;;;;;;3.00;1.90;;;17.50;35.20;;;;;;5045113;28;20053;-63
2023/02/09 02:04:53;;;;;;;3.47;2.05;;;17.50;35.20;;;;;;5045174;28;20045;-63
2023/02/09 02:07:27;;;;;;;2.45;1.88;;;17.50;35.20;;;;;;5045151;28;20052;-63
2023/02/09 02:09:55;;;;;;;3.63;2.92;;;17.50;35.20;;;;;;5046440;28;20033;-63
2023/02/09 02:12:25;;;;;;;2.15;1.92;;;17.40;35.20;;;;;;5046212;28;20049;-62
2023/02/09 02:14:53;;;;;;;2.60;2.35;;;17.40;35.20;;;;;;5047384;28;20099;-63
2023/02/09 02:17:27;;;;;;;3.10;2.22;;;17.40;35.20;;;;;;5066888;28;20054;-64
2023/02/09 02:20:24;;;;;;;3.03;1.90;;;17.40;35.20;;;;;;5066232;28;20082;-63
2023/02/09 02:23:05;;;;;;;2.90;2.33;;;17.40;35.20;;;;;;5066397;28;20135;-63
2023/02/09 02:26:29;;;;;;;2.92;2.42;;;17.40;35.20;;;;;;5066683;28;20055;-63
2023/02/09 02:29:20;;;;;;;4.93;2.58;;;17.40;35.20;;;;;;5006870;28;20104;-63
2023/02/09 02:32:07;;;;;;;3.25;2.83;;;17.30;35.20;;;;;;5023401;28;20482;-64
2023/02/09 02:34:44;;;;;;;4.63;3.13;;;17.30;35.20;;;;;;5023377;28;20045;-63
2023/02/09 02:37:20;;;;;;;2.83;2.33;;;17.30;35.20;;;;;;5023531;28;20092;-63
2023/02/09 02:39:55;;;;;;;2.75;2.25;;;17.30;35.20;;;;;;5023039;28;20453;-63
2023/02/09 02:45:18;;;;;;;2.25;2.05;;;17.30;35.20;;;;;;5023102;28;20141;-63
2023/02/09 02:47:54;;;;;;;3.40;2.22;;;17.30;35.20;;;;;;5023245;28;20056;-62
2023/02/09 02:50:26;;;;;;;3.42;2.67;;;17.30;35.20;;;;;;5023140;28;20041;-63
2023/02/09 02:52:57;;;;;;;3.58;1.63;;;17.30;35.20;;;;;;5023177;28;20120;-63
2023/02/09 02:55:29;;;;;;;4.03;2.33;;;17.30;35.20;;;;;;5023032;28;20159;-63
2023/02/09 02:58:01;;;;;;;3.08;2.80;;;17.30;35.20;;;;;;5018058;28;20189;-63
2023/02/09 03:00:34;;;;;;;1.75;1.65;;;17.30;35.20;;;;;;5043853;28;20059;-63
2023/02/09 03:03:06;;;;;;;2.65;2.28;;;17.30;35.20;;;;;;5065458;28;20530;-64
2023/02/09 03:05:33;;;;;;;2.25;1.50;;;17.30;35.20;;;;;;5064425;28;20504;-64
2023/02/09 03:08:00;;;;;;;2.85;1.85;;;17.30;35.20;;;;;;5064534;28;20041;-64
2023/02/09 03:10:33;;;;;;;2.80;2.13;;;17.20;35.10;;;;;;5065181;28;20057;-62
2023/02/09 03:13:18;;;;;;;6.90;2.03;;;17.20;35.30;;;;;;5065227;28;20053;-60
2023/02/09 03:15:57;;;;;;;8.05;2.28;;;17.30;35.60;;;;;;5065536;28;20040;-60
2023/02/09 03:18:34;;;;;;;4.43;2.13;;;17.20;35.60;;;;;;5065332;28;20048;-62
2023/02/09 03:21:06;;;;;;;3.15;1.65;;;17.20;35.80;;;;;;5065486;28;20123;-62
2023/02/09 03:23:45;;;;;;;7.10;2.22;;;17.20;35.90;;;;;;5064298;28;20052;-60
2023/02/09 03:26:19;;;;;;;8.27;2.03;;;17.20;36.00;;;;;;5065394;28;20497;-60
2023/02/09 03:28:50;;;;;;;10.40;3.03;;;17.20;36.10;;;;;;5065173;28;20162;-60
2023/02/09 03:31:18;;;;;;;10.88;2.30;;;17.20;36.10;;;;;;5065685;28;20048;-60
2023/02/09 03:33:49;;;;;;;5.45;2.53;;;17.20;36.20;;;;;;5065285;28;20798;-61
2023/02/09 03:36:19;;;;;;;3.88;1.63;;;17.10;36.10;;;;;;5064794;28;20139;-59
2023/02/09 03:38:47;;;;;;;6.10;2.28;;;17.20;36.20;;;;;;5065357;28;20044;-59
2023/02/09 03:41:15;;;;;;;3.92;1.80;;;17.20;36.20;;;;;;5065088;28;20079;-60
2023/02/09 03:46:28;;;;;;;2.87;1.90;;;17.20;36.20;;;;;;5059424;28;20511;-61
2023/02/09 03:48:58;;;;;;;2.70;2.28;;;17.10;36.20;;;;;;5045541;28;20974;-61
2023/02/09 03:51:31;;;;;;;1.42;1.33;;;17.20;36.30;;;;;;5046681;28;20048;-61
2023/02/09 03:53:59;;;;;;;1.85;1.50;;;17.10;36.30;;;;;;5049539;28;20046;-60
2023/02/09 03:56:26;;;;;;;5.70;2.35;;;17.10;36.30;;;;;;5049110;28;20128;-60
2023/02/09 03:58:53;;;;;;;2.83;1.92;;;17.10;36.90;;;;;;5049298;28;20033;-61
2023/02/09 04:01:21;;;;;;;3.60;2.25;;;17.10;36.40;;;;;;5061374;28;20581;-58
2023/02/09 04:03:49;;;;;;;3.53;2.85;;;17.10;36.40;;;;;;5069169;28;20044;-59
2023/02/09 04:06:17;;;;;;;3.40;2.20;;;17.10;36.50;;;;;;5068761;28;20139;-59
2023/02/09 04:08:44;;;;;;;3.70;2.50;;;17.20;36.50;;;;;;5078439;28;20086;-60
2023/02/09 04:11:14;;;;;;;3.10;2.63;;;17.10;36.50;;;;;;5088612;28;20097;-62
2023/02/09 04:13:41;;;;;;;4.03;2.35;;;17.10;36.50;;;;;;5080239;28;20127;-60
2023/02/09 04:16:09;;;;;;;4.38;2.72;;;17.10;36.50;;;;;;5068609;28;20100;-61
2023/02/09 04:18:36;;;;;;;4.22;2.13;;;17.10;36.50;;;;;;5068623;28;20075;-61
2023/02/09 04:21:04;;;;;;;4.07;1.77;;;17.10;36.60;;;;;;5068404;28;20099;-61
2023/02/09 04:23:32;;;;;;;3.88;1.73;;;17.10;36.60;;;;;;5068075;28;20087;-61
2023/02/09 04:26:03;;;;;;;3.20;1.83;;;17.10;36.60;;;;;;5068279;28;20461;-61
2023/02/09 04:28:30;;;;;;;4.47;1.60;;;17.10;36.70;;;;;;5068324;28;20432;-60
2023/02/09 04:30:57;;;;;;;2.35;1.88;;;17.10;36.70;;;;;;5068513;28;20045;-60
2023/02/09 04:33:26;;;;;;;4.65;1.98;;;17.10;36.80;;;;;;5068305;28;20591;-60
2023/02/09 04:35:53;;;;;;;2.22;1.92;;;17.10;36.80;;;;;;5068237;28;20064;-60
2023/02/09 04:38:22;;;;;;;2.75;2.00;;;17.10;36.90;;;;;;5068418;28;20098;-60
2023/02/09 04:40:52;;;;;;;8.10;1.63;;;17.10;37.00;;;;;;5066859;28;20037;-60
2023/02/09 04:43:21;;;;;;;3.17;2.10;;;17.10;37.00;;;;;;5068099;28;20047;-60
2023/02/09 04:45:48;;;;;;;2.45;1.60;;;17.10;37.10;;;;;;5068473;28;20044;-60
2023/02/09 04:48:17;;;;;;;1.55;1.13;;;17.10;37.20;;;;;;5068420;28;20131;-61
2023/02/09 04:50:45;;;;;;;1.83;1.73;;;17.10;37.30;;;;;;5068364;28;20051;-60
2023/02/09 04:53:12;;;;;;;2.08;1.27;;;17.10;37.30;;;;;;5068477;28;20451;-60
2023/02/09 04:55:40;;;;;;;2.95;1.73;;;17.10;37.40;;;;;;5067989;28;20044;-61
2023/02/09 05:00:59;;;;;;;2.15;1.95;;;17.10;37.50;;;;;;5067988;28;20588;-60
2023/02/09 05:03:26;;;;;;;2.20;1.73;;;17.10;37.50;;;;;;5067540;28;20036;-61
2023/02/09 05:05:56;;;;;;;2.08;1.52;;;17.10;37.60;;;;;;5067913;28;20044;-61
2023/02/09 05:08:23;;;;;;;3.13;2.38;;;17.10;37.70;;;;;;5065604;28;20060;-60
2023/02/09 05:10:52;;;;;;;3.00;1.83;;;17.10;37.70;;;;;;5067532;28;20844;-60
2023/02/09 05:13:22;;;;;;;1.63;1.50;;;17.10;37.80;;;;;;5067544;28;20072;-58
2023/02/09 05:15:50;;;;;;;2.80;1.63;;;17.20;37.90;;;;;;5067962;28;20054;-61
2023/02/09 05:18:18;;;;;;;1.80;1.42;;;17.20;37.90;;;;;;5067358;28;20072;-65
2023/02/09 05:20:46;;;;;;;4.20;2.70;;;17.20;38.00;;;;;;5067491;28;20067;-61
2023/02/09 05:23:15;;;;;;;3.50;1.77;;;17.20;38.10;;;;;;5066987;28;20055;-61
2023/02/09 05:25:44;;;;;;;2.20;1.08;;;17.20;38.10;;;;;;5067293;28;20075;-61
2023/02/09 05:28:12;;;;;;;4.20;1.60;;;17.20;38.10;;;;;;5067217;28;20051;-60
2023/02/09 05:30:42;;;;;;;1.73;1.35;;;17.20;38.10;;;;;;5066910;28;20037;-60
2023/02/09 05:33:09;;;;;;;2.85;1.13;;;17.20;38.20;;;;;;5067070;28;20114;-59
2023/02/09 05:35:36;;;;;;;1.95;1.35;;;17.20;38.10;;;;;;5067090;28;20043;-60
2023/02/09 05:38:03;;;;;;;3.00;2.53;;;17.20;38.20;;;;;;5066464;28;20086;-63
2023/02/09 05:40:32;;;;;;;2.15;1.92;;;17.20;38.40;;;;;;5066865;28;20044;-60
2023/02/09 05:43:01;;;;;;;2.70;1.65;;;17.20;38.30;;;;;;5066659;28;20053;-59
2023/02/09 05:45:28;;;;;;;3.42;1.88;;;17.20;38.30;;;;;;5066883;28;20094;-63
2023/02/09 05:47:57;;;;;;;1.65;1.30;;;17.20;38.40;;;;;;5066830;28;20711;-59
2023/02/09 05:50:24;;;;;;;3.67;2.13;;;17.20;38.50;;;;;;5066368;28;20129;-61
2023/02/09 05:52:58;;;;;;;3.17;1.77;;;17.20;38.60;;;;;;5066273;28;20053;-59
2023/02/09 05:55:27;;;;;;;4.05;1.83;;;17.20;38.60;;;;;;5066304;28;20521;-60
2023/02/09 05:57:54;;;;;;;2.05;1.70;;;17.20;38.60;;;;;;5066301;28;20488;-60
2023/02/09 06:00:23;;;;;;;3.33;2.25;;;17.20;38.50;;;;;;5078791;28;20484;-60
2023/02/09 06:02:51;;;;;;;3.15;2.33;;;17.20;38.50;;;;;;5066335;28;20044;-60
2023/02/09 06:05:22;;;;;;;2.97;2.20;;;17.20;38.50;;;;;;5066605;28;20053;-60
2023/02/09 06:07:50;;;;;;;4.07;1.83;;;17.20;38.40;;;;;;5066066;28;20524;-61
2023/02/09 06:10:17;;;;;;;4.72;2.55;;;17.20;38.40;;;;;;5066752;28;20420;-61
2023/02/09 06:12:45;;;;;;;7.35;1.83;;;17.20;38.50;;;;;;5053342;28;20493;-61
2023/02/09 06:15:12;;;;;;;5.43;1.90;;;17.20;38.50;;;;;;5045962;28;20055;-61
2023/02/09 06:17:39;;;;;;;3.55;2.00;;;17.20;38.50;;;;;;5046510;28;20106;-61
2023/02/09 06:20:07;;;;;;;3.88;2.63;;;17.20;38.50;;;;;;5059872;28;20037;-60
2023/02/09 06:22:40;;;;;;;3.83;3.03;;;17.20;38.40;;;;;;5066351;28;20048;-62
2023/02/09 06:25:09;;;;;;;4.68;2.10;;;17.20;38.50;;;;;;5066353;28;20075;-60
2023/02/09 06:27:36;;;;;;;2.78;1.70;;;17.20;38.50;;;;;;5066273;28;20052;-60
2023/02/09 06:30:05;;;;;;;6.65;3.08;;;17.20;38.60;;;;;;5066133;28;20044;-60
2023/02/09 06:32:32;;;;;;;6.53;2.20;;;17.20;38.60;;;;;;5066110;28;20047;-60
2023/02/09 06:35:00;;;;;;;4.05;2.35;;;17.20;38.70;;;;;;5065055;28;20416;-61
2023/02/09 06:37:28;;;;;;;3.72;2.42;;;17.20;38.70;;;;;;5065081;28;20057;-61
2023/02/09 06:39:56;;;;;;;3.72;1.73;;;17.20;38.70;;;;;;5064789;28;20056;-61
2023/02/09 06:42:23;;;;;;;2.58;1.92;;;17.20;38.70;;;;;;5066005;28;20040;-60
2023/02/09 06:44:51;;;;;;;7.03;2.97;;;17.20;38.70;;;;;;5066071;28;20048;-60
2023/02/09 06:47:18;;;;;;;3.90;2.20;;;17.20;38.70;;;;;;5066065;28;20055;-62
2023/02/09 06:49:46;;;;;;;4.70;2.22;;;17.20;38.70;;;;;;5065660;28;20049;-60
2023/02/09 06:52:15;;;;;;;3.67;2.20;;;17.20;38.70;;;;;;5065896;28;20052;-60
2023/02/09 06:54:42;;;;;;;4.38;2.00;;;17.20;38.70;;;;;;5066033;28;20045;-60
2023/02/09 06:57:11;;;;;;;2.45;1.50;;;17.20;38.70;;;;;;5065757;28;20055;-60
2023/02/09 06:59:38;;;;;;;2.97;2.22;;;17.20;38.70;;;;;;5065639;28;20044;-59
2023/02/09 07:02:06;;;;;;;4.25;2.85;;;17.20;38.70;;;;;;5065525;28;20127;-62
2023/02/09 07:04:33;;;;;;;4.38;2.05;;;17.20;38.80;;;;;;5065431;28;20052;-61
2023/02/09 07:07:00;;;;;;;3.28;2.10;;;17.20;39.40;;;;;;5064380;28;20046;-61
2023/02/09 07:09:32;;;;;;;5.45;2.63;;;17.20;38.80;;;;;;5065609;28;20052;-61
2023/02/09 07:11:59;;;;;;;2.42;2.20;;;17.20;38.90;;;;;;5063952;28;20055;-62
2023/02/09 07:14:27;;;;;;;6.55;3.35;;;17.20;38.90;;;;;;5064202;28;20061;-62
2023/02/09 07:16:57;;;;;;;2.45;2.25;;;17.20;38.90;;;;;;5065531;28;20479;-61
2023/02/09 07:19:25;;;;;;;3.03;2.28;;;17.20;39.00;;;;;;5065232;28;20052;-60
2023/02/09 07:21:52;;;;;;;3.38;2.47;;;17.20;39.00;;;;;;5065561;28;20055;-61
2023/02/09 07:24:19;;;;;;;4.45;2.97;;;17.20;39.10;;;;;;5065609;28;20044;-61
2023/02/09 07:26:48;;;;;;;2.97;2.22;;;17.20;39.10;;;;;;5066927;28;20089;-61
2023/02/09 07:29:17;;;;;;;3.17;2.05;;;17.20;39.10;;;;;;5069001;28;20102;-61
2023/02/09 07:31:46;;;;;;;3.42;1.63;;;17.20;39.20;;;;;;5069232;28;20051;-62
2023/02/09 07:34:40;;;;;;;4.75;2.65;;;17.20;39.20;;;;;;5067251;28;20036;-60
2023/02/09 07:37:35;;;;;;;4.82;2.47;;;17.30;39.20;;;;;;5068526;28;20604;-62
2023/02/09 07:40:58;;;;;;;2.50;2.30;;;17.20;39.30;;;;;;5069172;28;20040;-61
2023/02/09 08:30:17;;;;;;;6.15;3.78;;;17.20;39.80;;;;;;5068121;28;20093;-61
2023/02/09 08:33:15;;;;;;;6.18;2.85;;;17.10;39.70;;;;;;5066735;28;20748;-60
2023/02/09 08:35:51;;;;;;;5.75;3.50;;;17.20;39.60;;;;;;5068277;28;20402;-61
2023/02/09 08:38:23;;;;;;;5.30;3.45;;;17.20;39.60;;;;;;5065721;28;20068;-61
2023/02/09 08:41:41;;;;;;;4.45;3.28;;;17.20;39.60;;;;;;5066984;28;20710;-59
2023/02/09 08:44:59;;;;;;;10.48;5.07;;;17.20;39.60;;;;;;5053861;28;20111;-53
2023/02/09 08:48:16;;;;;;;9.52;5.45;;;17.20;39.00;;;;;;5047215;28;20099;-51
2023/02/09 08:50:45;;;;;;;8.27;4.47;;;17.30;39.20;;;;;;5062516;28;20094;-53
2023/02/09 08:53:12;;;;;;;9.43;5.93;;;17.30;39.30;;;;;;5067278;28;20048;-59
2023/02/09 08:55:41;;;;;;;5.90;5.32;;;17.30;38.20;;;;;;5067490;28;20056;-59
2023/02/09 08:58:08;;;;;;;10.98;5.22;;;17.40;38.20;;;;;;5067066;28;20127;-56
2023/02/09 09:00:35;;;;;;;12.27;5.93;;;17.40;38.10;;;;;;5066925;28;20048;-64
2023/02/09 09:03:05;;;;;;;7.72;4.63;;;17.50;38.00;;;;;;5066050;28;20058;-61
2023/02/09 09:05:34;;;;;;;11.00;6.68;;;17.50;37.70;;;;;;5067584;28;20036;-68
2023/02/09 09:08:03;;;;;;;10.73;5.50;;;17.50;37.50;;;;;;5068148;28;20044;-64
2023/02/09 09:10:30;;;;;;;8.13;5.00;;;17.60;37.50;;;;;;5067453;28;20117;-66
2023/02/09 09:12:59;;;;;;;10.32;5.53;;;17.60;37.50;;;;;;5067093;28;20417;-62
2023/02/09 09:15:29;;;;;;;9.20;6.45;;;17.70;37.70;;;;;;5066936;28;20454;-64
2023/02/09 09:17:56;;;;;;;7.15;5.32;;;17.70;37.70;;;;;;5067465;28;20044;-64
2023/02/09 09:20:23;;;;;;;14.25;5.70;;;17.80;37.60;;;;;;5067126;28;20533;-61
2023/02/09 09:22:51;;;;;;;8.50;5.55;;;17.80;37.30;;;;;;5067621;28;20509;-60
2023/02/09 09:25:18;;;;;;;5.32;4.82;;;17.90;37.00;;;;;;5055483;28;20113;-61
2023/02/09 09:27:45;;;;;;;8.20;6.00;;;17.90;36.70;;;;;;5058951;28;20040;-57
2023/02/09 09:30:14;;;;;;;5.20;4.68;;;17.90;36.40;;;;;;5066718;28;20448;-58
2023/02/09 09:32:42;;;;;;;8.93;4.82;;;18.00;36.40;;;;;;5067314;28;20535;-59
2023/02/09 09:35:09;;;;;;;7.32;4.65;;;18.00;36.20;;;;;;5067553;28;20139;-57
2023/02/09 09:37:36;;;;;;;6.28;4.68;;;18.10;36.80;;;;;;5065755;28;20050;-62
2023/02/09 09:40:05;;;;;;;9.82;5.93;;;18.10;36.00;;;;;;5066621;28;20457;-57
2023/02/09 09:42:37;;;;;;;5.88;4.55;;;18.10;35.80;;;;;;5066403;28;20041;-54
2023/02/09 09:45:11;;;;;;;7.28;4.88;;;18.20;36.00;;;;;;5065948;28;20079;-54
2023/02/09 09:47:41;;;;;;;8.50;6.25;;;18.20;35.90;;;;;;5066339;28;20033;-57
2023/02/09 09:50:16;;;;;;;9.68;4.88;;;18.30;35.70;;;;;;5065444;28;20496;-54
2023/02/09 09:52:46;;;;;;;4.53;4.13;;;18.30;35.50;;;;;;5066165;28;20062;-54
2023/02/09 09:55:21;;;;;;;10.23;5.85;;;18.30;35.70;;;;;;5066454;28;20040;-52
2023/02/09 09:57:49;;;;;;;8.98;4.95;;;18.40;35.40;;;;;;5066032;28;20408;-56
2023/02/09 10:00:19;;;;;;;9.68;5.05;;;18.50;35.60;;;;;;5065727;28;20094;-54
2023/02/09 10:02:48;;;;;;;8.05;5.35;;;18.50;35.40;;;;;;5050316;28;20121;-54
2023/02/09 10:05:18;;;;;;;4.57;3.75;;;18.50;35.30;;;;;;5067348;28;20037;-52
2023/02/09 10:07:52;;;;;;;6.45;4.90;;;18.60;35.30;;;;;;5066098;28;20036;-51
2023/02/09 10:10:32;;;;;;;9.43;4.32;;;18.60;35.10;;;;;;5067923;28;20116;-54
2023/02/09 10:13:03;;;;;;;7.15;4.55;;;18.70;35.20;;;;;;5065623;28;20116;-55
2023/02/09 10:15:33;;;;;;;7.93;6.32;;;18.70;35.20;;;;;;5065709;28;20123;-55
2023/02/09 10:18:02;;;;;;;6.85;4.80;;;18.70;35.00;;;;;;5065992;28;20040;-56
2023/02/09 10:20:45;;;;;;;10.15;5.30;;;18.80;34.80;;;;;;5066048;28;20124;-63
2023/02/09 10:23:17;;;;;;;7.82;5.53;;;18.80;34.60;;;;;;5064210;28;20505;-62
2023/02/09 10:25:59;;;;;;;4.90;4.32;;;18.90;34.60;;;;;;5065561;28;20138;-60
2023/02/09 10:28:30;;;;;;;8.00;5.15;;;19.00;34.50;;;;;;5064831;28;20047;-65
2023/02/09 10:31:00;;;;;;;6.60;5.40;;;19.00;34.60;;;;;;5065541;28;20139;-65
2023/02/09 10:33:40;;;;;;;9.05;5.78;;;19.00;34.50;;;;;;5065813;28;20037;-65
2023/02/09 10:36:23;;;;;;;6.63;5.13;;;19.00;34.70;;;;;;5065413;28;20098;-63
2023/02/09 10:38:51;;;;;;;8.50;5.07;;;19.10;34.20;;;;;;5049859;28;20032;-63
2023/02/09 10:41:21;;;;;;;6.80;5.10;;;19.10;34.30;;;;;;5065677;28;20122;-63
2023/02/09 10:43:52;;;;;;;6.95;6.22;;;19.20;34.20;;;;;;5065916;28;20599;-66
2023/02/09 10:46:20;;;;;;;6.82;5.05;;;19.20;34.00;;;;;;5069535;28;20041;-72
2023/02/09 10:48:49;;;;;;;7.65;6.18;;;19.20;33.90;;;;;;5068899;28;20051;-73
2023/02/09 10:51:27;;;;;;;7.32;6.00;;;19.30;33.80;;;;;;5067300;28;20106;-65
2023/02/09 10:54:01;;;;;;;10.13;5.30;;;19.30;33.90;;;;;;5064093;28;20147;-65
2023/02/09 10:56:35;;;;;;;9.90;6.35;;;19.40;33.60;;;;;;5065271;28;20056;-65
2023/02/09 10:59:13;;;;;;;14.55;7.13;;;19.40;33.30;;;;;;5063901;28;20124;-65
2023/02/09 11:01:44;;;;;;;12.20;8.13;;;19.40;33.00;;;;;;5066262;28;20656;-65
2023/02/09 11:04:21;;;;;;;10.98;6.07;;;19.40;32.70;;;;;;5068103;28;20072;-65
2023/02/09 11:06:54;;;;;;;6.25;5.38;;;19.40;32.20;;;;;;5066943;28;20044;-65
2023/02/09 11:09:26;;;;;;;13.38;7.30;;;19.40;32.30;;;;;;5079684;28;20048;-60
2023/02/09 11:11:54;;;;;;;9.75;5.43;;;19.40;32.20;;;;;;5067792;28;20056;-62
2023/02/09 11:14:22;;;;;;;9.15;5.82;;;19.40;32.50;;;;;;5069953;28;20051;-60
2023/02/09 11:17:11;;;;;;;10.20;5.75;;;19.50;32.60;;;;;;5066921;28;20047;-60
2023/02/09 11:19:55;;;;;;;7.57;5.45;;;19.50;32.30;;;;;;5068981;28;20150;-61
2023/02/09 11:22:32;;;;;;;10.85;5.90;;;19.60;32.40;;;;;;5067591;28;20049;-61
2023/02/09 11:25:13;;;;;;;12.63;5.72;;;19.60;32.30;;;;;;5067903;28;20033;-62
2023/02/09 11:28:03;;;;;;;7.13;5.63;;;19.70;32.20;;;;;;5068856;28;20044;-62
2023/02/09 11:30:51;;;;;;;5.88;4.82;;;19.70;32.00;;;;;;5068842;28;20094;-62
2023/02/09 11:33:26;;;;;;;8.60;6.25;;;19.80;32.00;;;;;;5068860;28;20040;-61
2023/02/09 11:36:11;;;;;;;6.97;5.95;;;19.80;31.90;;;;;;5068853;28;20903;-60
2023/02/09 11:38:43;;;;;;;10.77;6.07;;;19.80;31.70;;;;;;5068721;28;20834;-61
2023/02/09 11:44:05;;;;;;;12.57;7.18;;;19.90;31.60;;;;;;5060234;28;20044;-63
2023/02/09 11:46:50;;;;;;;9.55;6.75;;;20.00;31.70;;;;;;5065170;28;20114;-59
2023/02/09 11:49:21;;;;;;;7.72;5.85;;;20.00;31.70;;;;;;5043350;28;20048;-61
2023/02/09 11:51:53;;;;;;;7.50;5.47;;;20.00;31.80;;;;;;5065195;28;20085;-61
2023/02/09 11:54:24;;;;;;;13.93;5.57;;;20.10;32.00;;;;;;5066030;28;20401;-62
2023/02/09 11:56:59;;;;;;;10.07;5.80;;;20.20;32.00;;;;;;5065034;28;20051;-62
2023/02/09 11:59:33;;;;;;;9.65;5.85;;;20.20;31.80;;;;;;5069763;28;20036;-74
2023/02/09 12:02:14;;;;;;;10.80;5.20;;;20.30;31.80;;;;;;5068451;28;20230;-73
2023/02/09 12:04:45;;;;;;;16.33;6.53;;;20.40;31.70;;;;;;5064334;28;20064;-69
2023/02/09 12:07:29;;;;;;;9.05;6.70;;;20.50;31.70;;;;;;5065407;28;20086;-76
2023/02/09 12:10:09;;;;;;;12.13;7.60;;;20.60;31.50;;;;;;5074405;28;20048;-62
2023/02/09 12:12:44;;;;;;;7.93;5.78;;;20.70;31.40;;;;;;5072929;28;20044;-59
2023/02/09 12:15:15;;;;;;;13.25;6.60;;;20.70;31.40;;;;;;5061537;28;20148;-59
2023/02/09 12:17:48;;;;;;;23.00;8.65;;;20.80;31.70;;;;;;5061257;28;20048;-60
2023/02/09 12:20:29;;;;;;;16.63;7.22;;;20.80;30.10;;;;;;5067587;28;20595;-54
2023/02/09 12:23:06;;;;;;;21.25;8.60;;;20.90;28.90;;;;;;5075460;28;20098;-60
2023/02/09 12:25:50;;;;;;;12.82;8.73;;;21.00;28.20;;;;;;5069142;28;20408;-61
2023/02/09 12:28:33;;;;;;;14.68;8.13;;;20.90;27.60;;;;;;5064553;28;20040;-58
2023/02/09 12:31:11;;;;;;;18.48;10.75;;;20.90;27.30;;;;;;5066317;28;20432;-61
2023/02/09 12:34:00;;;;;;;12.07;9.25;;;20.90;26.90;;;;;;5067946;28;20068;-61
2023/02/09 12:36:30;;;;;;;18.55;9.20;;;20.90;26.70;;;;;;5067054;28;20063;-62
2023/02/09 12:39:23;;;;;;;18.75;9.07;;;20.90;26.50;;;;;;5062706;28;20068;-60
2023/02/09 12:42:36;;;;;;;16.65;9.65;;;20.90;26.20;;;;;;5059641;28;20424;-60
2023/02/09 12:45:23;;;;;;;22.50;10.40;;;20.90;25.90;;;;;;5022921;28;20144;-54
2023/02/09 12:47:58;;;;;;;12.52;9.30;;;20.90;25.90;;;;;;5021673;28;20889;-55
2023/02/09 12:50:43;;;;;;;17.20;9.57;;;20.90;25.70;;;;;;5028667;28;20061;-55
2023/02/09 12:53:34;;;;;;;18.67;10.98;;;20.80;25.50;;;;;;5020478;28;20168;-54
2023/02/09 12:56:23;;;;;;;14.35;9.73;;;20.80;25.50;;;;;;5013625;28;20518;-58
2023/02/09 12:59:22;;;;;;;19.10;10.63;;;20.80;25.40;;;;;;5022696;28;20053;-59
2023/02/09 13:02:26;;;;;;;18.70;9.77;;;20.80;25.40;;;;;;4958827;28;20538;-51
2023/02/09 13:05:04;;;;;;;17.63;9.85;;;20.80;25.50;;;;;;4963868;28;20662;-51
2023/02/09 13:07:43;;;;;;;20.05;9.73;;;20.70;25.40;;;;;;4959115;28;20046;-56
2023/02/09 13:10:21;;;;;;;14.10;9.68;;;20.80;25.30;;;;;;4959473;28;20050;-54
2023/02/09 13:12:55;;;;;;;18.35;9.13;;;20.70;25.20;;;;;;4962370;28;20059;-53
2023/02/09 13:15:25;;;;;;;16.70;10.15;;;20.70;25.10;;;;;;4962520;28;20062;-53
2023/02/09 13:18:06;;;;;;;14.77;10.60;;;20.70;25.60;;;;;;4962598;28;20058;-54
2023/02/09 13:20:55;;;;;;;14.98;9.18;;;20.70;25.10;;;;;;4974883;28;20098;-50
2023/02/09 13:23:34;;;;;;;12.98;9.27;;;20.70;25.20;;;;;;5000317;28;20077;-50
2023/02/09 13:26:14;;;;;;;16.23;10.13;;;20.70;25.20;;;;;;5002284;28;20058;-54
2023/02/09 13:28:42;;;;;;;21.50;10.52;;;20.60;25.20;;;;;;4999302;28;20038;-51
2023/02/09 13:31:30;;;;;;;15.48;10.23;;;20.60;25.00;;;;;;5002124;28;20062;-56
2023/02/09 13:34:03;;;;;;;16.17;10.25;;;20.60;24.80;;;;;;5002193;28;20054;-57
2023/02/09 13:36:40;;;;;;;17.98;10.68;;;20.60;24.90;;;;;;4993307;28;20121;-59
2023/02/09 13:39:08;;;;;;;14.93;9.80;;;20.60;24.80;;;;;;5051872;28;20578;-54
2023/02/09 13:41:37;;;;;;;15.52;9.57;;;20.60;24.80;;;;;;5064157;28;20040;-53
2023/02/09 13:44:20;;;;;;;16.45;8.85;;;20.60;24.60;;;;;;5050525;28;21028;-57
2023/02/09 13:46:53;;;;;;;14.15;9.45;;;20.60;24.50;;;;;;5044138;28;20115;-54
2023/02/09 13:49:21;;;;;;;13.13;9.98;;;20.70;24.60;;;;;;5044292;28;20495;-54
2023/02/09 13:52:11;;;;;;;13.73;8.98;;;20.70;24.50;;;;;;5043702;28;20041;-54
2023/02/09 13:54:39;;;;;;;12.93;9.75;;;20.80;24.50;;;;;;5044215;28;20413;-54
2023/02/09 13:57:10;;;;;;;22.15;9.48;;;20.90;24.60;;;;;;5043522;28;20296;-53
2023/02/09 13:59:40;;;;;;;15.25;8.98;;;20.90;24.40;;;;;;5043795;28;20048;-52
2023/02/09 14:02:18;;;;;;;16.83;10.00;;;20.90;24.40;;;;;;5071977;28;20132;-60
2023/02/09 14:04:50;;;;;;;21.48;9.68;;;21.00;24.40;;;;;;5083381;28;20061;-52
2023/02/09 14:07:18;;;;;;;14.10;9.32;;;21.00;24.30;;;;;;5083510;28;20634;-48
2023/02/09 14:09:48;;;;;;;15.07;8.98;;;21.00;24.20;;;;;;5069964;28;20046;-55
2023/02/09 14:12:19;;;;;;;16.92;10.65;;;21.10;24.10;;;;;;5083842;28;20044;-55
2023/02/09 14:17:49;;;;;;;16.05;8.95;;;21.20;24.00;;;;;;5066997;28;20064;-55
2023/02/09 14:20:20;;;;;;;14.45;8.23;;;21.30;24.10;;;;;;5043074;28;20115;-56
2023/02/09 14:22:56;;;;;;;17.27;9.10;;;21.30;23.90;;;;;;5043292;28;20116;-57
2023/02/09 14:25:25;;;;;;;18.05;8.68;;;21.30;23.80;;;;;;5043467;28;20132;-54